createdAt,value
2022-10-30T00:01:15.083Z,3.92
2022-10-30T00:04:16.429Z,4.70
2022-10-30T00:07:17.679Z,4.13
2022-10-30T00:10:18.974Z,3.65
2022-10-30T00:13:20.357Z,3.75
2022-10-30T00:16:21.596Z,4.15
2022-10-30T00:19:22.890Z,4.05
2022-10-30T00:22:24.159Z,4.20
2022-10-30T00:25:25.414Z,4.03
2022-10-30T00:28:26.635Z,4.40
2022-10-30T00:31:27.871Z,4.72
2022-10-30T00:34:29.167Z,4.15
2022-10-30T00:37:30.405Z,4.80
2022-10-30T00:40:32.184Z,4.25
2022-10-30T00:43:38.439Z,3.85
2022-10-30T00:46:40.422Z,4.95
2022-10-30T00:49:48.556Z,3.67
2022-10-30T00:52:52.530Z,4.03
2022-10-30T00:55:59.075Z,4.65
2022-10-30T00:59:02.054Z,4.10
2022-10-30T01:02:03.979Z,4.47
2022-10-30T01:05:05.956Z,3.60
2022-10-30T01:08:07.206Z,4.78
2022-10-30T01:11:09.184Z,4.07
2022-10-30T01:14:12.833Z,3.75
2022-10-30T01:17:20.125Z,3.75
2022-10-30T01:20:33.328Z,3.97
2022-10-30T01:23:34.533Z,4.30
2022-10-30T01:26:41.388Z,4.38
2022-10-30T01:29:42.571Z,4.95
2022-10-30T01:33:02.709Z,4.53
2022-10-30T01:36:18.466Z,4.65
2022-10-30T01:39:27.715Z,5.35
2022-10-30T01:42:47.540Z,5.32
2022-10-30T01:45:54.619Z,6.00
2022-10-30T01:49:07.100Z,5.07
2022-10-30T01:52:31.146Z,4.53
2022-10-30T01:55:37.506Z,4.60
2022-10-30T01:58:50.597Z,4.32
2022-10-30T02:01:52.092Z,4.45
2022-10-30T02:04:53.415Z,5.10
2022-10-30T02:07:54.891Z,4.45
2022-10-30T02:10:56.623Z,4.50
2022-10-30T02:13:58.584Z,4.50
2022-10-30T02:17:01.509Z,4.53
2022-10-30T02:20:02.900Z,4.55
2022-10-30T02:23:04.767Z,4.20
2022-10-30T02:26:06.318Z,4.32
2022-10-30T02:29:07.597Z,5.00
2022-10-30T02:32:08.856Z,4.22
2022-10-30T02:35:10.209Z,4.43
2022-10-30T02:38:11.453Z,4.45
2022-10-30T02:41:13.058Z,3.97
2022-10-30T02:44:14.325Z,4.70
2022-10-30T02:47:15.707Z,5.18
2022-10-30T02:50:17.142Z,4.38
2022-10-30T02:53:18.387Z,3.80
2022-10-30T02:56:19.660Z,4.10
2022-10-30T02:59:20.876Z,4.20
2022-10-30T03:02:22.168Z,4.53
2022-10-30T03:05:23.769Z,4.60
2022-10-30T03:08:24.987Z,4.43
2022-10-30T03:11:26.216Z,4.13
2022-10-30T03:14:27.498Z,4.22
2022-10-30T03:17:28.758Z,4.10
2022-10-30T03:20:30.168Z,4.10
2022-10-30T03:23:31.689Z,4.25
2022-10-30T03:26:32.927Z,4.45
2022-10-30T03:29:34.146Z,4.68
2022-10-30T03:32:35.965Z,4.22
2022-10-30T03:35:37.185Z,4.28
2022-10-30T03:38:38.696Z,4.22
2022-10-30T03:41:39.962Z,4.15
2022-10-30T03:44:41.190Z,4.38
2022-10-30T03:47:42.406Z,4.57
2022-10-30T03:50:43.661Z,4.00
2022-10-30T03:53:44.879Z,4.38
2022-10-30T03:56:46.176Z,4.57
2022-10-30T03:59:47.434Z,5.38
2022-10-30T04:02:49.363Z,4.32
2022-10-30T04:05:52.642Z,3.60
2022-10-30T04:08:56.643Z,4.38
2022-10-30T04:11:57.873Z,4.70
2022-10-30T04:14:59.091Z,4.20
2022-10-30T04:18:01.157Z,4.70
2022-10-30T04:21:03.034Z,3.53
2022-10-30T04:24:04.419Z,3.78
2022-10-30T04:27:05.894Z,4.75
2022-10-30T04:30:07.440Z,3.92
2022-10-30T04:33:11.114Z,4.60
2022-10-30T04:36:12.354Z,4.05
2022-10-30T04:39:13.645Z,4.18
2022-10-30T04:42:14.940Z,4.07
2022-10-30T04:45:16.346Z,4.20
2022-10-30T04:48:18.187Z,4.88
2022-10-30T04:51:19.548Z,5.68
2022-10-30T04:54:21.977Z,5.53
2022-10-30T04:57:23.336Z,4.82
2022-10-30T05:00:24.916Z,5.07
2022-10-30T05:03:26.126Z,4.57
2022-10-30T05:06:30.251Z,5.63
2022-10-30T05:09:31.469Z,5.28
2022-10-30T05:12:32.716Z,5.32
2022-10-30T05:15:33.959Z,4.93
2022-10-30T05:18:35.208Z,3.63
2022-10-30T05:21:36.491Z,3.22
2022-10-30T05:24:37.703Z,3.88
2022-10-30T05:27:38.962Z,3.75
2022-10-30T05:30:40.180Z,4.63
2022-10-30T05:33:41.425Z,4.75
2022-10-30T05:36:42.657Z,4.25
2022-10-30T05:39:43.901Z,5.03
2022-10-30T05:42:46.054Z,4.47
2022-10-30T05:45:48.720Z,4.00
2022-10-30T05:48:49.957Z,4.40
2022-10-30T05:51:51.251Z,4.38
2022-10-30T05:54:52.494Z,5.55
2022-10-30T05:58:01.089Z,5.45
2022-10-30T06:01:09.191Z,4.60
2022-10-30T06:04:10.461Z,3.88
2022-10-30T06:07:12.082Z,3.38
2022-10-30T06:10:13.332Z,4.20
2022-10-30T06:13:14.636Z,3.78
2022-10-30T06:16:15.970Z,4.47
2022-10-30T06:19:18.822Z,4.95
2022-10-30T06:22:20.452Z,5.07
2022-10-30T06:25:21.932Z,3.70
2022-10-30T06:28:23.379Z,3.97
2022-10-30T06:31:24.632Z,3.38
2022-10-30T06:34:27.138Z,3.33
2022-10-30T06:37:29.008Z,3.70
2022-10-30T06:40:30.545Z,4.15
2022-10-30T06:43:31.792Z,3.95
2022-10-30T06:46:33.982Z,4.30
2022-10-30T06:49:35.319Z,3.63
2022-10-30T06:52:36.579Z,3.95
2022-10-30T06:55:37.800Z,4.32
2022-10-30T06:58:39.361Z,3.53
2022-10-30T07:01:40.619Z,3.53
2022-10-30T07:04:41.918Z,4.00
2022-10-30T07:07:43.497Z,3.90
2022-10-30T07:10:44.720Z,4.38
2022-10-30T07:13:45.982Z,3.65
2022-10-30T07:16:47.385Z,3.70
2022-10-30T07:19:48.661Z,3.85
2022-10-30T07:22:49.958Z,3.95
2022-10-30T07:25:51.168Z,3.88
2022-10-30T07:28:52.406Z,7.95
2022-10-30T07:32:08.065Z,4.20
2022-10-30T07:35:10.544Z,4.35
2022-10-30T07:38:12.596Z,4.68
2022-10-30T07:41:13.848Z,4.47
2022-10-30T07:44:15.098Z,5.30
2022-10-30T07:47:16.355Z,4.72
2022-10-30T07:50:17.764Z,4.50
2022-10-30T07:53:19.120Z,5.65
2022-10-30T07:56:20.377Z,4.45
2022-10-30T07:59:21.593Z,4.38
2022-10-30T08:02:23.030Z,5.70
2022-10-30T08:05:28.762Z,4.57
2022-10-30T08:08:32.438Z,5.90
2022-10-30T08:11:33.733Z,4.72
2022-10-30T08:14:35.074Z,4.80
2022-10-30T08:17:46.622Z,5.05
2022-10-30T08:20:50.936Z,6.40
2022-10-30T08:23:52.398Z,6.07
2022-10-30T08:26:53.737Z,5.78
2022-10-30T08:29:54.987Z,6.43
2022-10-30T08:33:00.319Z,14.38
2022-10-30T08:36:02.335Z,8.75
2022-10-30T08:39:04.004Z,5.88
2022-10-30T08:42:05.282Z,5.65
2022-10-30T08:45:06.900Z,5.70
2022-10-30T08:48:10.396Z,5.13
2022-10-30T08:51:11.664Z,5.55
2022-10-30T08:54:12.898Z,5.30
2022-10-30T08:57:14.145Z,6.10
2022-10-30T09:00:15.465Z,4.93
2022-10-30T09:03:16.705Z,6.10
2022-10-30T09:06:17.931Z,4.72
2022-10-30T09:09:19.160Z,5.13
2022-10-30T09:12:20.406Z,4.43
2022-10-30T09:15:21.753Z,4.43
2022-10-30T09:18:23.081Z,4.00
2022-10-30T09:21:24.350Z,3.92
2022-10-30T09:24:25.675Z,4.93
2022-10-30T09:27:27.481Z,4.32
2022-10-30T09:30:28.896Z,4.68
2022-10-30T09:33:30.248Z,4.95
2022-10-30T09:36:32.930Z,5.38
2022-10-30T09:39:34.274Z,4.75
2022-10-30T09:42:40.705Z,4.45
2022-10-30T09:45:55.990Z,4.18
2022-10-30T09:49:32.641Z,4.32
2022-10-30T09:52:52.414Z,4.88
2022-10-30T09:56:15.409Z,4.30
2022-10-30T09:59:36.292Z,3.88
2022-10-30T10:02:43.792Z,3.60
2022-10-30T10:06:05.846Z,3.90
2022-10-30T10:09:09.641Z,3.83
2022-10-30T10:12:22.977Z,3.78
2022-10-30T10:15:34.403Z,3.60
2022-10-30T10:18:40.035Z,3.40
2022-10-30T10:21:51.122Z,3.38
2022-10-30T10:24:53.309Z,3.50
2022-10-30T10:28:06.058Z,3.17
2022-10-30T10:31:26.094Z,2.83
2022-10-30T10:34:30.485Z,3.00
2022-10-30T10:37:31.747Z,2.88
2022-10-30T10:40:35.961Z,3.17
2022-10-30T10:44:03.524Z,2.78
2022-10-30T10:47:07.811Z,2.72
2022-10-30T10:50:17.906Z,3.53
2022-10-30T10:53:41.591Z,2.80
2022-10-30T10:56:45.188Z,2.83
2022-10-30T10:59:49.341Z,2.70
2022-10-30T11:03:00.756Z,2.42
2022-10-30T11:06:11.791Z,2.58
2022-10-30T11:09:13.337Z,2.63
2022-10-30T11:12:14.670Z,2.28
2022-10-30T11:15:25.268Z,2.72
2022-10-30T11:18:27.148Z,2.38
2022-10-30T11:21:32.846Z,2.97
2022-10-30T11:24:35.506Z,2.10
2022-10-30T11:27:37.780Z,2.53
2022-10-30T11:30:38.986Z,2.33
2022-10-30T11:33:40.230Z,2.33
2022-10-30T11:36:41.876Z,2.38
2022-10-30T11:40:00.834Z,2.47
2022-10-30T11:43:03.678Z,2.95
2022-10-30T11:46:09.241Z,2.40
2022-10-30T11:49:24.410Z,2.60
2022-10-30T11:52:27.259Z,2.33
2022-10-30T11:55:46.296Z,2.47
2022-10-30T11:58:49.502Z,2.20
2022-10-30T12:04:52.784Z,2.85
2022-10-30T12:07:55.311Z,2.63
2022-10-30T12:10:58.592Z,2.58
2022-10-30T12:14:00.054Z,2.25
2022-10-30T12:17:01.293Z,2.67
2022-10-30T12:20:03.159Z,2.13
2022-10-30T12:23:12.525Z,2.22
2022-10-30T12:26:15.233Z,2.45
2022-10-30T12:29:17.543Z,2.45
2022-10-30T12:32:19.866Z,2.47
2022-10-30T12:35:30.004Z,2.40
2022-10-30T12:38:43.541Z,2.10
2022-10-30T12:41:47.692Z,2.40
2022-10-30T12:44:55.440Z,2.70
2022-10-30T12:47:59.817Z,2.30
2022-10-30T12:51:09.248Z,2.40
2022-10-30T12:54:31.011Z,2.22
2022-10-30T12:57:42.033Z,2.72
2022-10-30T13:01:09.920Z,2.60
2022-10-30T13:04:26.145Z,2.05
2022-10-30T13:07:33.666Z,2.17
2022-10-30T13:10:39.666Z,2.40
2022-10-30T13:13:42.232Z,2.20
2022-10-30T13:16:43.735Z,2.58
2022-10-30T13:19:45.852Z,2.20
2022-10-30T13:22:47.054Z,2.08
2022-10-30T13:25:48.370Z,2.50
2022-10-30T13:28:52.445Z,2.30
2022-10-30T13:32:11.846Z,2.17
2022-10-30T13:35:31.591Z,2.60
2022-10-30T13:38:32.837Z,2.35
2022-10-30T13:41:40.435Z,2.40
2022-10-30T13:45:01.961Z,2.20
2022-10-30T13:48:21.812Z,2.25
2022-10-30T13:51:28.820Z,2.20
2022-10-30T13:54:38.598Z,2.05
2022-10-30T14:00:40.994Z,2.65
2022-10-30T14:04:03.092Z,2.95
2022-10-30T14:07:16.570Z,1.88
2022-10-30T14:10:38.100Z,2.10
2022-10-30T14:13:55.737Z,2.03
2022-10-30T14:17:16.478Z,1.85
2022-10-30T14:20:17.865Z,2.10
2022-10-30T14:23:34.112Z,2.05
2022-10-30T14:26:35.444Z,2.00
2022-10-30T14:29:45.822Z,2.08
2022-10-30T14:32:51.545Z,2.22
2022-10-30T14:36:11.718Z,2.10
2022-10-30T14:39:12.921Z,2.72
2022-10-30T14:42:14.213Z,2.20
2022-10-30T14:45:25.013Z,1.92
2022-10-30T14:48:41.384Z,3.70
2022-10-30T14:51:51.054Z,2.17
2022-10-30T14:54:58.620Z,2.33
2022-10-30T14:58:02.856Z,2.33
2022-10-30T15:01:04.206Z,2.33
2022-10-30T15:04:14.796Z,2.30
2022-10-30T15:07:34.195Z,2.55
2022-10-30T15:10:38.856Z,2.63
2022-10-30T15:13:46.006Z,2.75
2022-10-30T15:16:49.651Z,2.63
2022-10-30T15:19:50.898Z,3.22
2022-10-30T15:23:00.562Z,2.92
2022-10-30T15:26:09.486Z,2.67
2022-10-30T15:29:16.705Z,2.70
2022-10-30T15:32:19.369Z,2.75
2022-10-30T15:35:21.939Z,2.92
2022-10-30T15:38:23.248Z,3.05
2022-10-30T15:41:24.509Z,2.83
2022-10-30T15:44:29.801Z,2.95
2022-10-30T15:47:31.112Z,4.05
2022-10-30T15:50:33.628Z,4.32
2022-10-30T15:53:37.652Z,3.80
2022-10-30T15:57:08.393Z,3.90
2022-10-30T16:00:07.828Z,2.97
2022-10-30T16:03:12.184Z,3.13
2022-10-30T16:06:17.529Z,3.78
2022-10-30T16:09:18.988Z,3.00
2022-10-30T16:12:20.587Z,3.50
2022-10-30T16:15:29.528Z,3.17
2022-10-30T16:18:31.990Z,4.07
2022-10-30T16:21:35.083Z,2.80
2022-10-30T16:24:36.434Z,2.83
2022-10-30T16:27:43.287Z,3.00
2022-10-30T16:30:44.519Z,3.20
2022-10-30T16:33:46.010Z,3.70
2022-10-30T16:36:47.444Z,4.07
2022-10-30T16:39:50.309Z,3.70
2022-10-30T16:42:54.644Z,3.50
2022-10-30T16:46:00.531Z,4.22
2022-10-30T16:49:03.712Z,3.17
2022-10-30T16:52:05.867Z,3.28
2022-10-30T16:55:08.904Z,2.72
2022-10-30T16:58:12.372Z,3.60
2022-10-30T17:01:13.874Z,3.40
2022-10-30T17:04:15.913Z,3.97
2022-10-30T17:07:21.337Z,3.20
2022-10-30T17:10:29.841Z,4.47
2022-10-30T17:13:37.071Z,3.97
2022-10-30T17:16:39.207Z,3.92
2022-10-30T17:19:46.063Z,3.75
2022-10-30T17:22:50.854Z,5.45
2022-10-30T17:25:52.108Z,5.18
2022-10-30T17:28:53.372Z,5.18
2022-10-30T17:31:58.123Z,5.00
2022-10-30T17:35:02.923Z,5.03
2022-10-30T17:38:04.524Z,5.85
2022-10-30T17:41:06.957Z,5.32
2022-10-30T17:44:15.004Z,4.82
2022-10-30T17:47:19.857Z,4.65
2022-10-30T17:50:21.098Z,6.22
2022-10-30T17:53:23.713Z,4.65
2022-10-30T17:56:26.669Z,6.07
2022-10-30T17:59:27.936Z,5.13
2022-10-30T18:02:29.188Z,4.78
2022-10-30T18:05:32.037Z,4.38
2022-10-30T18:08:33.786Z,5.95
2022-10-30T18:11:35.090Z,5.00
2022-10-30T18:14:36.341Z,4.25
2022-10-30T18:17:37.556Z,4.65
2022-10-30T18:20:38.828Z,4.32
2022-10-30T18:23:51.813Z,5.30
2022-10-30T18:26:54.823Z,4.63
2022-10-30T18:29:56.084Z,4.85
2022-10-30T18:32:57.899Z,4.30
2022-10-30T18:35:59.582Z,4.78
2022-10-30T18:39:00.874Z,5.10
2022-10-30T18:42:02.169Z,6.03
2022-10-30T18:45:10.280Z,5.97
2022-10-30T18:48:11.716Z,6.22
2022-10-30T18:51:15.980Z,5.18
2022-10-30T18:54:17.231Z,6.35
2022-10-30T18:57:18.491Z,7.47
2022-10-30T19:00:20.637Z,5.03
2022-10-30T19:03:21.920Z,6.10
2022-10-30T19:06:23.821Z,5.20
2022-10-30T19:09:25.059Z,5.35
2022-10-30T19:12:26.361Z,6.95
2022-10-30T19:15:31.877Z,6.88
2022-10-30T19:18:35.454Z,7.53
2022-10-30T19:21:36.723Z,8.32
2022-10-30T19:24:37.982Z,8.15
2022-10-30T19:27:39.226Z,13.93
2022-10-30T19:30:41.552Z,13.02
2022-10-30T19:33:43.286Z,8.38
2022-10-30T19:36:44.539Z,7.95
2022-10-30T19:39:45.804Z,9.38
2022-10-30T19:42:47.086Z,9.70
2022-10-30T19:45:51.373Z,6.72
2022-10-30T19:48:57.791Z,5.00
2022-10-30T19:51:59.634Z,4.80
2022-10-30T19:55:00.893Z,4.78
2022-10-30T19:58:03.299Z,4.47
2022-10-30T20:01:04.707Z,4.80
2022-10-30T20:04:06.213Z,4.65
2022-10-30T20:07:08.506Z,4.85
2022-10-30T20:10:14.288Z,4.32
2022-10-30T20:13:15.635Z,5.10
2022-10-30T20:16:16.894Z,4.53
2022-10-30T20:19:28.957Z,5.20
2022-10-30T20:22:30.198Z,5.10
2022-10-30T20:25:31.476Z,3.85
2022-10-30T20:28:34.789Z,4.47
2022-10-30T20:31:36.126Z,6.07
2022-10-30T20:34:37.375Z,7.25
2022-10-30T20:37:38.667Z,6.90
2022-10-30T20:40:40.037Z,6.03
2022-10-30T20:43:41.256Z,6.78
2022-10-30T20:46:42.538Z,9.60
2022-10-30T20:49:43.793Z,8.02
2022-10-30T20:52:46.240Z,4.22
2022-10-30T20:55:47.503Z,4.93
2022-10-30T20:58:48.918Z,4.97
2022-10-30T21:01:50.265Z,5.28
2022-10-30T21:04:51.624Z,3.97
2022-10-30T21:07:53.074Z,4.45
2022-10-30T21:10:58.157Z,4.90
2022-10-30T21:13:59.397Z,5.30
2022-10-30T21:17:00.637Z,4.82
2022-10-30T21:20:01.887Z,4.82
2022-10-30T21:23:03.352Z,4.88
2022-10-30T21:26:05.899Z,4.82
2022-10-30T21:29:07.301Z,5.55
2022-10-30T21:32:08.557Z,4.25
2022-10-30T21:35:09.804Z,4.30
2022-10-30T21:38:11.250Z,4.47
2022-10-30T21:41:14.011Z,3.72
2022-10-30T21:44:15.811Z,4.00
2022-10-30T21:47:17.124Z,3.72
2022-10-30T21:50:18.388Z,3.55
2022-10-30T21:53:19.621Z,3.92
2022-10-30T21:56:30.457Z,4.18
2022-10-30T21:59:31.723Z,5.03
2022-10-30T22:02:32.997Z,3.80
2022-10-30T22:05:34.263Z,4.93
2022-10-30T22:08:35.646Z,4.13
2022-10-30T22:11:36.973Z,4.13
2022-10-30T22:14:38.221Z,4.32
2022-10-30T22:17:39.481Z,3.80
2022-10-30T22:20:40.708Z,3.50
2022-10-30T22:23:42.460Z,3.95
2022-10-30T22:26:43.967Z,3.92
2022-10-30T22:29:45.196Z,4.07
2022-10-30T22:32:46.438Z,4.68
2022-10-30T22:35:47.727Z,4.07
2022-10-30T22:38:53.973Z,4.78
2022-10-30T22:41:55.215Z,4.30
2022-10-30T22:44:56.455Z,4.03
2022-10-30T22:47:58.075Z,3.65
2022-10-30T22:51:00.273Z,3.50
2022-10-30T22:54:02.453Z,3.97
2022-10-30T22:57:03.704Z,3.22
2022-10-30T23:00:05.796Z,3.53
2022-10-30T23:03:07.091Z,4.13
2022-10-30T23:06:08.723Z,3.00
2022-10-30T23:09:14.495Z,3.17
2022-10-30T23:12:15.735Z,3.33
2022-10-30T23:15:17.025Z,3.30
2022-10-30T23:18:18.397Z,3.58
2022-10-30T23:21:20.979Z,3.13
2022-10-30T23:24:22.666Z,3.03
2022-10-30T23:27:23.896Z,3.47
2022-10-30T23:30:25.128Z,3.88
2022-10-30T23:33:26.381Z,4.05
2022-10-30T23:36:27.916Z,3.42
2022-10-30T23:39:29.308Z,3.92
2022-10-30T23:42:30.536Z,3.90
2022-10-30T23:45:32.858Z,3.90
2022-10-30T23:48:34.072Z,3.63
2022-10-30T23:51:35.320Z,3.97
2022-10-30T23:54:36.532Z,4.80
2022-10-30T23:57:37.928Z,3.35
